createdAt,value
2023-05-09T00:01:18.615Z,41.82
2023-05-09T00:03:52.022Z,41.87
2023-05-09T00:06:25.642Z,41.78
2023-05-09T00:08:58.917Z,41.89
2023-05-09T00:11:34.452Z,42.15
2023-05-09T00:14:08.127Z,42.03
2023-05-09T00:16:43.622Z,42.08
2023-05-09T00:27:13.597Z,42.29
2023-05-09T00:29:53.601Z,42.41
2023-05-09T00:32:28.829Z,42.52
2023-05-09T00:35:02.632Z,42.64
2023-05-09T00:37:36.046Z,42.63
2023-05-09T00:40:11.629Z,42.65
2023-05-09T00:54:02.615Z,43.04
2023-05-09T00:56:36.759Z,43.00
2023-05-09T00:59:10.624Z,42.96
2023-05-09T01:01:44.015Z,42.89
2023-05-09T01:04:19.616Z,42.70
2023-05-09T01:07:05.560Z,42.93
2023-05-09T01:09:56.635Z,42.91
2023-05-09T01:23:46.641Z,43.00
2023-05-09T01:26:40.638Z,42.91
2023-05-09T01:29:42.653Z,42.82
2023-05-09T01:32:21.699Z,42.79
2023-05-09T01:35:05.699Z,42.87
2023-05-09T01:48:18.617Z,42.52
2023-05-09T01:50:54.569Z,42.20
2023-05-09T01:53:30.625Z,42.37
2023-05-09T01:56:06.537Z,42.28
2023-05-09T01:58:42.614Z,42.27
2023-05-09T02:01:17.056Z,42.17
2023-05-09T02:14:16.582Z,42.40
2023-05-09T02:16:56.689Z,42.32
2023-05-09T02:19:29.864Z,42.27
2023-05-09T02:22:04.655Z,42.26
2023-05-09T02:24:38.188Z,42.24
2023-05-09T02:27:12.614Z,42.27
2023-05-09T02:29:51.341Z,42.03
2023-05-09T02:42:46.589Z,42.43
2023-05-09T02:45:28.617Z,42.21
2023-05-09T02:48:03.607Z,42.28
2023-05-09T02:50:37.617Z,42.30
2023-05-09T02:53:11.297Z,42.08
2023-05-09T02:55:47.628Z,42.15
2023-05-09T03:08:59.614Z,42.62
2023-05-09T03:11:33.049Z,42.59
2023-05-09T03:14:06.615Z,42.51
2023-05-09T03:16:40.103Z,42.63
2023-05-09T03:19:21.598Z,42.71
2023-05-09T03:21:54.873Z,42.60
2023-05-09T03:34:45.584Z,42.93
2023-05-09T03:37:27.103Z,42.87
2023-05-09T03:40:01.000Z,42.99
2023-05-09T03:42:39.601Z,43.08
2023-05-09T03:45:13.204Z,43.11
2023-05-09T03:47:47.625Z,43.19
2023-05-09T03:50:22.973Z,43.11
2023-05-09T04:03:12.634Z,43.20
2023-05-09T04:05:56.649Z,43.07
2023-05-09T04:08:34.932Z,43.19
2023-05-09T04:11:14.601Z,43.12
2023-05-09T04:13:49.617Z,43.26
2023-05-09T04:16:49.673Z,43.17
2023-05-09T04:30:02.613Z,43.24
2023-05-09T04:32:36.156Z,43.23
2023-05-09T04:35:10.615Z,43.42
2023-05-09T04:37:46.950Z,43.29
2023-05-09T04:40:28.626Z,43.41
2023-05-09T04:57:16.550Z,43.59
2023-05-09T05:00:02.617Z,43.46
2023-05-09T05:02:36.398Z,43.54
2023-05-09T05:05:13.313Z,43.62
2023-05-09T05:07:46.885Z,43.55
2023-05-09T05:10:25.636Z,43.69
2023-05-09T05:23:43.634Z,43.37
2023-05-09T05:26:16.934Z,43.31
2023-05-09T05:28:50.589Z,43.08
2023-05-09T05:31:25.353Z,43.25
2023-05-09T05:33:58.821Z,43.30
2023-05-09T05:36:32.645Z,43.31
2023-05-09T05:49:22.557Z,43.10
2023-05-09T05:52:02.617Z,43.17
2023-05-09T05:54:35.754Z,43.04
2023-05-09T05:57:15.596Z,42.80
2023-05-09T05:59:50.397Z,43.08
2023-05-09T06:15:21.573Z,43.18
2023-05-09T06:17:55.630Z,43.30
2023-05-09T06:20:29.606Z,42.83
2023-05-09T06:23:02.963Z,42.77
2023-05-09T06:25:36.609Z,42.85
2023-05-09T06:28:09.833Z,42.97
2023-05-09T06:30:45.605Z,42.76
2023-05-09T06:43:55.586Z,42.61
2023-05-09T06:46:30.864Z,42.23
2023-05-09T06:49:04.613Z,41.85
2023-05-09T06:51:37.830Z,42.03
2023-05-09T06:54:11.577Z,41.63
2023-05-09T06:56:45.058Z,41.43
2023-05-09T07:09:35.587Z,40.49
2023-05-09T07:12:15.589Z,40.55
2023-05-09T07:14:48.847Z,40.70
2023-05-09T07:17:23.894Z,40.31
2023-05-09T07:19:57.876Z,40.15
2023-05-09T07:36:13.629Z,38.53
2023-05-09T07:38:46.826Z,38.89
2023-05-09T07:41:22.438Z,38.27
2023-05-09T07:43:55.828Z,38.58
2023-05-09T07:46:29.810Z,38.67
2023-05-09T07:49:03.142Z,39.02
2023-05-09T07:51:38.590Z,38.88
2023-05-09T08:01:58.608Z,39.02
2023-05-09T08:04:38.730Z,38.95
2023-05-09T08:07:13.756Z,39.07
2023-05-09T08:09:47.581Z,39.85
2023-05-09T08:12:20.810Z,39.87
2023-05-09T08:14:54.621Z,39.30
2023-05-09T08:28:44.610Z,39.47
2023-05-09T08:31:17.900Z,38.85
2023-05-09T08:33:51.617Z,39.48
2023-05-09T08:36:25.128Z,39.37
2023-05-09T08:38:58.640Z,39.26
2023-05-09T08:41:33.806Z,37.48
2023-05-09T08:57:49.621Z,36.41
2023-05-09T09:00:25.277Z,36.93
2023-05-09T09:02:59.633Z,37.00
2023-05-09T09:05:41.896Z,36.34
2023-05-09T09:08:24.594Z,35.53
2023-05-09T09:10:58.240Z,35.44
2023-05-09T09:23:50.567Z,35.63
2023-05-09T09:26:30.621Z,36.39
2023-05-09T09:29:03.928Z,36.34
2023-05-09T09:31:38.640Z,36.88
2023-05-09T09:34:19.529Z,37.64
2023-05-09T09:36:59.589Z,38.53
2023-05-09T09:50:22.869Z,36.95
2023-05-09T09:52:56.632Z,37.20
2023-05-09T09:55:31.608Z,38.29
2023-05-09T09:58:16.390Z,36.36
2023-05-09T10:01:11.640Z,36.51
2023-05-09T10:17:49.698Z,34.85
2023-05-09T10:20:30.622Z,35.70
2023-05-09T10:23:05.937Z,36.61
2023-05-09T10:25:46.617Z,36.76
2023-05-09T10:28:27.795Z,37.24
2023-05-09T10:31:15.649Z,33.65
2023-05-09T10:44:31.613Z,33.13
2023-05-09T10:47:06.782Z,34.10
2023-05-09T10:49:41.596Z,34.82
2023-05-09T10:52:14.968Z,32.88
2023-05-09T10:54:49.618Z,33.13
2023-05-09T10:57:22.827Z,34.63
2023-05-09T11:10:22.578Z,35.08
2023-05-09T11:13:04.619Z,33.97
2023-05-09T11:16:03.586Z,34.54
2023-05-09T11:18:58.598Z,35.05
2023-05-09T11:21:35.663Z,35.64
2023-05-09T11:37:59.601Z,32.02
2023-05-09T11:40:34.546Z,31.46
2023-05-09T11:43:08.707Z,32.34
2023-05-09T11:45:42.362Z,33.24
2023-05-09T11:48:15.621Z,32.02
2023-05-09T11:50:48.825Z,33.96
2023-05-09T12:03:38.701Z,34.30
2023-05-09T12:06:22.613Z,33.66
2023-05-09T12:08:56.316Z,33.54
2023-05-09T12:11:36.589Z,34.19
2023-05-09T12:14:09.839Z,32.74
2023-05-09T12:16:52.594Z,33.03
2023-05-09T12:30:04.596Z,33.76
2023-05-09T12:32:39.225Z,32.35
2023-05-09T12:35:14.800Z,32.71
2023-05-09T12:37:55.942Z,33.12
2023-05-09T12:40:41.625Z,34.03
2023-05-09T12:43:14.958Z,33.48
2023-05-09T12:45:50.574Z,32.23
2023-05-09T12:56:20.666Z,32.45
2023-05-09T12:59:01.602Z,34.05
2023-05-09T13:01:36.885Z,33.96
2023-05-09T13:04:14.390Z,33.21
2023-05-09T13:06:49.405Z,33.21
2023-05-09T13:09:23.632Z,32.22
2023-05-09T13:11:57.014Z,32.24
2023-05-09T13:24:47.581Z,33.38
2023-05-09T13:27:27.598Z,33.49
2023-05-09T13:30:00.904Z,33.83
2023-05-09T13:32:34.669Z,33.65
2023-05-09T13:35:08.819Z,33.13
2023-05-09T13:50:39.658Z,32.92
2023-05-09T13:53:13.017Z,32.63
2023-05-09T13:55:46.660Z,33.53
2023-05-09T13:58:19.836Z,33.90
2023-05-09T14:00:53.608Z,35.77
2023-05-09T14:03:27.081Z,34.85
2023-05-09T14:06:02.846Z,34.23
2023-05-09T14:16:31.615Z,33.72
2023-05-09T14:19:13.241Z,31.08
2023-05-09T14:21:48.836Z,28.91
2023-05-09T14:24:22.649Z,30.88
2023-05-09T14:26:56.045Z,31.32
2023-05-09T14:29:29.598Z,30.97
2023-05-09T14:32:02.924Z,30.91
2023-05-09T14:44:53.591Z,30.33
2023-05-09T14:47:33.621Z,30.33
2023-05-09T14:50:08.664Z,30.73
2023-05-09T14:52:41.632Z,30.79
2023-05-09T14:55:15.147Z,30.71
2023-05-09T15:10:46.639Z,29.89
2023-05-09T15:13:20.153Z,29.83
2023-05-09T15:15:53.632Z,30.10
2023-05-09T15:18:26.864Z,29.51
2023-05-09T15:21:00.649Z,28.58
2023-05-09T15:23:33.949Z,29.48
2023-05-09T15:26:09.634Z,29.02
2023-05-09T15:36:39.595Z,29.89
2023-05-09T15:39:19.637Z,28.87
2023-05-09T15:41:54.825Z,28.73
2023-05-09T15:44:28.614Z,28.92
2023-05-09T15:47:02.144Z,28.98
2023-05-09T15:49:35.618Z,29.56
2023-05-09T15:52:09.936Z,29.17
2023-05-09T16:05:00.606Z,29.57
2023-05-09T16:07:40.597Z,29.63
2023-05-09T16:10:14.335Z,28.97
2023-05-09T16:12:47.780Z,27.93
2023-05-09T16:15:21.319Z,28.18
2023-05-09T16:30:51.669Z,28.95
2023-05-09T16:33:24.977Z,28.42
2023-05-09T16:35:58.641Z,28.46
2023-05-09T16:38:32.052Z,28.00
2023-05-09T16:41:05.648Z,28.31
2023-05-09T16:43:38.996Z,27.95
2023-05-09T16:46:29.641Z,27.38
2023-05-09T16:56:59.624Z,26.49
2023-05-09T16:59:39.626Z,25.65
2023-05-09T17:02:14.826Z,24.86
2023-05-09T17:04:48.736Z,24.33
2023-05-09T17:07:21.895Z,23.61
2023-05-09T17:09:55.688Z,23.93
2023-05-09T17:12:28.989Z,22.71
2023-05-09T17:25:19.586Z,21.06
2023-05-09T17:27:59.641Z,21.01
2023-05-09T17:30:32.868Z,20.95
2023-05-09T17:33:06.694Z,20.74
2023-05-09T17:35:39.867Z,20.57
2023-05-09T17:51:56.642Z,24.59
2023-05-09T17:54:29.897Z,25.73
2023-05-09T17:57:03.626Z,26.22
2023-05-09T17:59:36.860Z,27.43
2023-05-09T18:02:10.649Z,27.81
2023-05-09T18:04:44.042Z,28.76
2023-05-09T18:07:19.658Z,28.99
2023-05-09T18:17:19.589Z,29.76
2023-05-09T18:20:00.709Z,30.05
2023-05-09T18:22:35.813Z,30.57
2023-05-09T18:25:09.702Z,30.47
2023-05-09T18:27:42.865Z,30.52
2023-05-09T18:30:18.660Z,30.76
2023-05-09T18:32:51.899Z,30.73
2023-05-09T18:45:42.617Z,31.65
2023-05-09T18:48:22.634Z,31.46
2023-05-09T18:50:55.861Z,32.27
2023-05-09T18:53:29.658Z,32.16
2023-05-09T18:56:03.676Z,32.18
2023-05-09T19:12:18.667Z,32.44
2023-05-09T19:15:02.483Z,32.75
2023-05-09T19:17:42.687Z,32.50
2023-05-09T19:20:16.052Z,32.86
2023-05-09T19:22:49.886Z,32.57
2023-05-09T19:25:26.602Z,32.74
2023-05-09T19:38:23.628Z,33.25
2023-05-09T19:41:07.651Z,33.53
2023-05-09T19:43:41.179Z,33.52
2023-05-09T19:46:14.703Z,33.43
2023-05-09T19:48:47.924Z,33.41
2023-05-09T19:51:21.676Z,33.44
2023-05-09T20:04:33.659Z,33.56
2023-05-09T20:07:06.877Z,33.78
2023-05-09T20:09:40.665Z,33.50
2023-05-09T20:12:13.899Z,33.91
2023-05-09T20:14:47.628Z,33.73
2023-05-09T20:17:21.097Z,33.86
2023-05-09T20:33:33.625Z,34.20
2023-05-09T20:36:00.436Z,33.93
2023-05-09T20:38:40.693Z,34.28
2023-05-09T20:41:13.844Z,34.28
2023-05-09T20:43:47.634Z,34.38
2023-05-09T20:46:20.902Z,34.05
2023-05-09T20:59:12.613Z,34.34
2023-05-09T21:01:52.704Z,34.39
2023-05-09T21:04:25.887Z,34.26
2023-05-09T21:06:59.694Z,34.38
2023-05-09T21:09:33.061Z,34.55
2023-05-09T21:12:06.954Z,34.40
2023-05-09T21:25:19.624Z,35.13
2023-05-09T21:27:52.884Z,34.86
2023-05-09T21:30:28.664Z,34.99
2023-05-09T21:33:02.081Z,34.90
2023-05-09T21:35:35.647Z,35.00
2023-05-09T21:52:12.617Z,35.65
2023-05-09T21:54:52.651Z,35.22
2023-05-09T21:57:25.984Z,35.50
2023-05-09T21:59:59.640Z,35.64
2023-05-09T22:02:40.053Z,35.34
2023-05-09T22:05:21.448Z,35.49
2023-05-09T22:07:56.772Z,35.68
2023-05-09T22:18:04.858Z,35.38
2023-05-09T22:20:38.086Z,35.35
2023-05-09T22:25:43.173Z,35.51
2023-05-09T22:28:10.046Z,35.12
2023-05-09T22:30:51.659Z,35.52
2023-05-09T22:44:46.633Z,35.07
2023-05-09T22:47:21.881Z,35.00
2023-05-09T22:49:56.648Z,35.16
2023-05-09T22:52:37.149Z,35.06
2023-05-09T22:55:17.694Z,35.24
2023-05-09T22:57:50.887Z,35.13
2023-05-09T23:11:26.625Z,34.98
2023-05-09T23:14:08.665Z,35.24
2023-05-09T23:16:41.885Z,34.94
2023-05-09T23:19:15.663Z,35.47
2023-05-09T23:21:49.017Z,35.06
2023-05-09T23:24:22.677Z,35.16
2023-05-09T23:26:55.945Z,35.16
2023-05-09T23:39:46.617Z,35.43
2023-05-09T23:42:26.629Z,35.51
2023-05-09T23:44:59.922Z,35.53
2023-05-09T23:47:33.663Z,35.42
2023-05-09T23:50:08.553Z,35.29
2023-05-09T23:52:41.647Z,35.75
